Time;durP1;ratioP1;P1;durP2;ratioP2;P2;SDS_P1;SDS_P2;PMS_P1;PMS_P2;Temp;Humidity;BMP_temperature;BMP_pressure;BME280_temperature;BME280_humidity;BME280_pressure;Samples;Min_cycle;Max_cycle;Signal;HPM_P1;HPM_P2
2022/04/23 00:00:34;;;;;;;12.70;11.13;;;13.50;60.10;;;;;;5096923;28;20463;-41
2022/04/23 00:03:01;;;;;;;13.83;11.10;;;13.50;60.20;;;;;;5095638;28;20463;-41
2022/04/23 00:05:28;;;;;;;13.03;11.40;;;13.50;60.30;;;;;;5100155;28;20464;-41
2022/04/23 00:07:55;;;;;;;12.77;11.47;;;13.50;60.30;;;;;;5092691;28;20509;-42
2022/04/23 00:10:23;;;;;;;13.10;10.67;;;13.50;60.40;;;;;;5101733;27;20471;-41
2022/04/23 00:12:50;;;;;;;13.40;12.00;;;13.50;60.30;;;;;;5100913;28;20469;-41
2022/04/23 00:15:17;;;;;;;12.67;10.70;;;13.50;60.40;;;;;;5100491;27;20464;-42
2022/04/23 00:17:47;;;;;;;14.00;12.60;;;13.50;60.40;;;;;;5104517;28;20463;-42
2022/04/23 00:20:13;;;;;;;12.40;11.00;;;13.50;60.30;;;;;;5100640;28;20465;-42
2022/04/23 00:22:41;;;;;;;11.93;10.80;;;13.50;60.60;;;;;;5107479;27;20468;-42
2022/04/23 00:25:08;;;;;;;12.20;10.90;;;13.40;60.60;;;;;;5104707;27;20462;-42
2022/04/23 00:27:35;;;;;;;12.43;11.13;;;13.40;60.60;;;;;;5100472;28;20491;-42
2022/04/23 00:30:02;;;;;;;13.10;11.67;;;13.40;60.60;;;;;;5101273;27;20667;-42
2022/04/23 00:32:30;;;;;;;12.00;10.23;;;13.30;60.70;;;;;;5103447;28;20707;-42
2022/04/23 00:34:58;;;;;;;15.73;11.70;;;13.30;60.70;;;;;;5102145;28;20948;-42
2022/04/23 00:37:24;;;;;;;12.97;11.67;;;13.30;60.90;;;;;;5102862;28;20504;-42
2022/04/23 00:39:51;;;;;;;13.03;11.50;;;13.30;60.70;;;;;;5103439;28;20544;-42
2022/04/23 00:42:18;;;;;;;13.07;11.30;;;13.20;60.80;;;;;;5105005;27;20454;-42
2022/04/23 00:44:45;;;;;;;13.60;12.03;;;13.20;61.10;;;;;;5101508;28;20457;-42
2022/04/23 00:47:11;;;;;;;13.50;11.40;;;13.20;61.20;;;;;;5086868;28;20470;-42
2022/04/23 00:49:38;;;;;;;13.33;11.80;;;13.20;61.00;;;;;;5087352;27;20588;-42
2022/04/23 00:52:06;;;;;;;13.03;11.40;;;13.20;61.00;;;;;;5102363;27;20463;-42
2022/04/23 00:54:34;;;;;;;16.20;12.43;;;13.20;61.20;;;;;;5089846;28;20459;-42
2022/04/23 00:57:01;;;;;;;13.47;11.50;;;13.20;61.70;;;;;;5099243;28;20844;-42
2022/04/23 00:59:29;;;;;;;13.30;11.90;;;13.20;61.70;;;;;;5087641;28;20965;-42
2022/04/23 01:01:55;;;;;;;14.50;11.60;;;13.10;61.60;;;;;;5100471;28;20465;-42
2022/04/23 01:04:22;;;;;;;15.10;12.10;;;13.10;61.70;;;;;;5096961;28;20525;-42
2022/04/23 01:06:49;;;;;;;14.43;12.00;;;13.00;61.70;;;;;;5102099;28;20460;-42
2022/04/23 01:09:16;;;;;;;14.83;12.43;;;13.00;62.00;;;;;;5105952;27;20857;-42
2022/04/23 01:11:42;;;;;;;14.77;12.33;;;13.00;62.10;;;;;;5101377;28;20509;-42
2022/04/23 01:14:10;;;;;;;14.37;12.70;;;13.00;62.00;;;;;;5095769;28;20471;-42
2022/04/23 01:16:37;;;;;;;15.77;12.77;;;13.00;62.00;;;;;;5091344;27;20982;-42
2022/04/23 01:19:04;;;;;;;15.23;12.03;;;13.00;61.90;;;;;;5102158;27;20940;-42
2022/04/23 01:21:31;;;;;;;16.80;13.90;;;13.00;62.10;;;;;;5098257;27;20481;-42
2022/04/23 01:23:58;;;;;;;15.07;11.43;;;12.90;62.20;;;;;;5085760;28;20463;-42
2022/04/23 01:26:26;;;;;;;17.23;13.73;;;12.90;62.40;;;;;;5086264;28;20512;-42
2022/04/23 01:28:54;;;;;;;17.40;13.07;;;12.80;62.50;;;;;;5100988;28;20848;-42
2022/04/23 01:31:21;;;;;;;15.60;13.70;;;12.90;62.80;;;;;;5099798;28;20485;-42
2022/04/23 01:33:48;;;;;;;16.30;12.63;;;12.90;62.80;;;;;;5086458;28;20508;-42
2022/04/23 01:36:15;;;;;;;16.97;14.17;;;12.90;62.70;;;;;;5098308;28;20459;-42
2022/04/23 01:38:43;;;;;;;15.10;12.90;;;12.80;63.00;;;;;;5082648;28;20477;-42
2022/04/23 01:41:10;;;;;;;14.17;12.77;;;12.80;63.00;;;;;;5086679;28;20470;-42
2022/04/23 01:43:37;;;;;;;17.50;13.20;;;12.70;63.00;;;;;;5100502;28;20476;-42
2022/04/23 01:46:04;;;;;;;16.00;13.40;;;12.70;63.00;;;;;;5085708;28;21055;-42
2022/04/23 01:48:30;;;;;;;15.70;12.40;;;12.70;63.50;;;;;;5096505;28;20498;-42
2022/04/23 01:50:57;;;;;;;17.47;14.53;;;12.70;63.60;;;;;;5100324;27;20452;-42
2022/04/23 01:53:25;;;;;;;17.03;13.30;;;12.70;63.70;;;;;;5099652;27;21172;-42
2022/04/23 01:55:53;;;;;;;21.53;13.70;;;12.70;63.60;;;;;;5098114;27;20940;-42
2022/04/23 01:58:24;;;;;;;18.90;13.80;;;12.70;63.60;;;;;;5099215;28;20469;-42
2022/04/23 02:00:52;;;;;;;16.67;12.90;;;12.70;63.70;;;;;;5097136;28;20952;-42
2022/04/23 02:03:19;;;;;;;17.40;14.60;;;12.70;63.90;;;;;;5103807;28;20555;-41
2022/04/23 02:05:46;;;;;;;18.30;14.03;;;12.70;63.70;;;;;;5100202;27;20471;-42
2022/04/23 02:08:16;;;;;;;19.87;14.53;;;12.70;64.00;;;;;;5100912;27;20490;-43
2022/04/23 02:10:44;;;;;;;19.27;14.90;;;12.70;64.20;;;;;;5101204;27;20455;-42
2022/04/23 02:13:11;;;;;;;18.60;15.10;;;12.70;64.00;;;;;;5088234;28;20463;-42
2022/04/23 02:15:40;;;;;;;15.30;12.97;;;12.70;64.10;;;;;;5100584;28;20467;-42
2022/04/23 02:18:08;;;;;;;17.43;13.73;;;12.70;64.30;;;;;;5101878;27;21029;-42
2022/04/23 02:20:35;;;;;;;16.50;13.60;;;12.60;64.20;;;;;;5097418;28;20443;-42
2022/04/23 02:23:05;;;;;;;16.50;14.17;;;12.60;64.40;;;;;;5079629;28;20836;-41
2022/04/23 02:25:36;;;;;;;13.47;12.00;;;12.60;64.30;;;;;;5097019;28;20460;-41
2022/04/23 02:28:04;;;;;;;16.07;13.70;;;12.60;64.70;;;;;;5097707;27;20922;-41
2022/04/23 02:30:32;;;;;;;20.50;14.33;;;12.60;64.60;;;;;;5099996;28;21153;-42
2022/04/23 02:32:59;;;;;;;18.47;14.20;;;12.60;64.50;;;;;;5097063;28;20456;-41
2022/04/23 02:35:26;;;;;;;22.40;14.00;;;12.60;64.60;;;;;;5098821;27;20477;-41
2022/04/23 02:37:56;;;;;;;16.70;13.67;;;12.60;65.00;;;;;;5099861;28;20964;-41
2022/04/23 02:40:23;;;;;;;18.10;15.10;;;12.60;64.80;;;;;;5098454;28;20843;-42
2022/04/23 02:42:51;;;;;;;16.47;14.70;;;12.60;64.90;;;;;;5098115;28;20460;-42
2022/04/23 02:45:20;;;;;;;17.43;14.00;;;12.60;65.00;;;;;;5092049;28;20455;-42
2022/04/23 02:47:57;;;;;;;16.73;14.70;;;12.60;65.10;;;;;;5097470;28;20546;-42
2022/04/23 02:50:30;;;;;;;18.50;15.33;;;12.50;65.20;;;;;;5079196;28;20451;-42
2022/04/23 02:52:58;;;;;;;15.30;13.13;;;12.50;65.30;;;;;;5087831;28;20451;-42
2022/04/23 02:55:26;;;;;;;19.30;14.40;;;12.50;65.40;;;;;;5102274;27;20485;-42
2022/04/23 02:57:53;;;;;;;18.00;15.43;;;12.50;65.60;;;;;;5097731;28;20469;-42
2022/04/23 03:00:20;;;;;;;17.60;14.40;;;12.40;65.40;;;;;;5103259;28;20491;-44
2022/04/23 03:02:47;;;;;;;18.90;14.67;;;12.40;65.70;;;;;;5098270;28;20450;-44
2022/04/23 03:05:15;;;;;;;17.07;13.40;;;12.40;65.70;;;;;;5083653;28;20478;-44
2022/04/23 03:07:43;;;;;;;16.23;14.27;;;12.30;65.90;;;;;;5098272;28;20463;-44
2022/04/23 03:10:12;;;;;;;18.63;14.60;;;12.40;65.90;;;;;;5100271;27;20580;-44
2022/04/23 03:12:39;;;;;;;18.37;14.80;;;12.40;66.00;;;;;;5097418;28;20474;-44
2022/04/23 03:15:08;;;;;;;15.33;13.73;;;12.30;65.90;;;;;;5103368;28;20453;-44
2022/04/23 03:17:39;;;;;;;17.77;14.20;;;12.30;66.00;;;;;;5098352;28;20463;-45
2022/04/23 03:20:10;;;;;;;17.50;13.70;;;12.30;66.30;;;;;;5099574;28;20506;-44
2022/04/23 03:22:41;;;;;;;17.57;14.97;;;12.30;66.30;;;;;;5096948;28;20458;-44
2022/04/23 03:25:09;;;;;;;19.33;14.43;;;12.30;66.20;;;;;;5087653;28;21103;-44
2022/04/23 03:27:36;;;;;;;15.73;13.90;;;12.20;66.40;;;;;;5077851;28;20463;-45
2022/04/23 03:30:05;;;;;;;16.87;14.07;;;12.30;66.50;;;;;;5099162;28;20487;-45
2022/04/23 03:32:34;;;;;;;18.67;14.70;;;12.20;66.70;;;;;;5098305;28;20490;-43
2022/04/23 03:35:02;;;;;;;18.80;15.20;;;12.20;66.80;;;;;;5084092;28;20444;-44
2022/04/23 03:37:28;;;;;;;21.03;14.97;;;12.20;66.90;;;;;;5087026;28;20464;-44
2022/04/23 03:39:55;;;;;;;16.43;14.63;;;12.20;67.10;;;;;;5097368;28;20454;-44
2022/04/23 03:42:22;;;;;;;18.87;14.20;;;12.20;67.10;;;;;;5099276;28;20487;-44
2022/04/23 03:44:49;;;;;;;17.17;15.03;;;12.20;67.10;;;;;;5100969;28;20510;-44
2022/04/23 03:47:16;;;;;;;22.47;16.47;;;12.10;67.30;;;;;;5098466;28;20533;-44
2022/04/23 03:49:43;;;;;;;18.30;14.43;;;12.10;67.40;;;;;;5100677;28;20487;-44
2022/04/23 03:52:10;;;;;;;15.53;13.47;;;12.10;67.70;;;;;;5096893;28;20494;-44
2022/04/23 03:54:37;;;;;;;19.53;15.60;;;12.10;67.70;;;;;;5096770;28;20463;-44
2022/04/23 03:57:05;;;;;;;16.00;13.67;;;12.10;67.70;;;;;;5101353;28;20851;-44
2022/04/23 03:59:32;;;;;;;17.30;13.73;;;12.10;68.00;;;;;;5098549;28;20449;-44
2022/04/23 04:02:04;;;;;;;21.13;14.93;;;12.10;67.80;;;;;;5080029;28;20467;-44
2022/04/23 04:04:34;;;;;;;19.47;13.33;;;12.20;68.00;;;;;;5098923;28;20459;-44
2022/04/23 04:07:02;;;;;;;16.57;13.30;;;12.20;67.90;;;;;;5098857;28;20489;-44
2022/04/23 04:09:29;;;;;;;16.90;14.60;;;12.20;67.80;;;;;;5098670;28;20481;-44
2022/04/23 04:12:02;;;;;;;17.63;14.20;;;12.20;67.70;;;;;;5096361;28;20467;-44
2022/04/23 04:14:34;;;;;;;19.47;14.80;;;12.20;67.80;;;;;;5097681;28;20452;-44
2022/04/23 04:17:07;;;;;;;15.90;14.20;;;12.10;67.90;;;;;;5099106;28;20534;-44
2022/04/23 04:19:34;;;;;;;17.57;14.10;;;12.10;68.10;;;;;;5096596;28;20468;-44
2022/04/23 04:22:03;;;;;;;19.60;15.03;;;12.20;68.10;;;;;;5099379;28;20873;-44
2022/04/23 04:24:31;;;;;;;15.53;13.90;;;12.20;68.20;;;;;;5083808;28;20535;-44
2022/04/23 04:26:58;;;;;;;16.50;14.73;;;12.20;68.20;;;;;;5098191;28;20467;-44
2022/04/23 04:29:25;;;;;;;17.97;13.83;;;12.20;68.10;;;;;;5098968;28;21303;-44
2022/04/23 04:31:52;;;;;;;14.77;12.90;;;12.10;68.10;;;;;;5080539;28;20475;-44
2022/04/23 04:34:28;;;;;;;17.00;13.50;;;12.10;68.30;;;;;;5096504;28;20457;-44
2022/04/23 04:37:10;;;;;;;15.63;12.57;;;12.10;68.30;;;;;;5098179;28;20967;-44
2022/04/23 04:39:37;;;;;;;16.70;12.30;;;12.10;68.30;;;;;;5098179;28;20467;-44
2022/04/23 04:42:06;;;;;;;16.03;12.50;;;12.00;68.50;;;;;;5099017;28;20475;-44
2022/04/23 04:44:33;;;;;;;15.93;14.13;;;12.00;68.70;;;;;;5097369;28;20466;-44
2022/04/23 04:47:00;;;;;;;15.53;13.60;;;12.00;68.80;;;;;;5096736;28;20456;-44
2022/04/23 04:49:27;;;;;;;15.10;12.30;;;12.00;68.90;;;;;;5097691;28;20497;-44
2022/04/23 04:51:54;;;;;;;23.40;13.77;;;12.00;69.10;;;;;;5100024;28;20463;-44
2022/04/23 04:54:23;;;;;;;14.13;12.47;;;12.10;68.90;;;;;;5099797;27;20478;-44
2022/04/23 04:56:51;;;;;;;15.43;13.40;;;12.10;68.80;;;;;;5087551;28;20462;-43
2022/04/23 04:59:20;;;;;;;15.00;12.50;;;12.10;68.90;;;;;;5102888;27;20462;-44
2022/04/23 05:01:48;;;;;;;18.40;12.50;;;12.10;69.10;;;;;;5099496;27;20948;-44
2022/04/23 05:04:15;;;;;;;15.17;12.40;;;12.20;69.10;;;;;;5099678;28;20506;-44
2022/04/23 05:06:41;;;;;;;14.30;11.80;;;12.20;69.00;;;;;;5101596;27;20468;-44
2022/04/23 05:09:08;;;;;;;14.30;11.60;;;12.20;68.70;;;;;;5082871;28;20999;-44
2022/04/23 05:11:35;;;;;;;12.10;10.70;;;12.30;68.50;;;;;;5099719;28;20471;-44
2022/04/23 05:14:02;;;;;;;16.50;10.47;;;12.30;68.50;;;;;;5101888;27;20455;-44
2022/04/23 05:16:28;;;;;;;13.20;11.23;;;12.30;68.60;;;;;;5099785;28;20464;-43
2022/04/23 05:18:55;;;;;;;12.17;10.87;;;12.30;68.60;;;;;;5100271;28;20852;-44
2022/04/23 05:21:22;;;;;;;12.33;10.50;;;12.30;68.60;;;;;;5101515;27;20459;-44
2022/04/23 05:23:48;;;;;;;13.87;12.03;;;12.30;68.70;;;;;;5087816;28;20574;-44
2022/04/23 05:26:15;;;;;;;13.63;11.70;;;12.30;68.70;;;;;;5100883;28;20516;-45
2022/04/23 05:28:42;;;;;;;13.97;10.87;;;12.30;68.50;;;;;;5094913;28;20475;-44
2022/04/23 05:31:09;;;;;;;11.30;10.10;;;12.30;68.70;;;;;;5099132;28;20467;-45
2022/04/23 05:33:36;;;;;;;13.67;10.70;;;12.30;68.80;;;;;;5102180;28;20450;-45
2022/04/23 05:36:06;;;;;;;15.10;11.47;;;12.30;68.80;;;;;;5085012;28;20455;-45
2022/04/23 05:38:35;;;;;;;11.40;10.20;;;12.30;69.20;;;;;;5101862;28;20482;-44
2022/04/23 05:41:02;;;;;;;11.77;10.30;;;12.30;69.10;;;;;;5100165;28;21000;-44
2022/04/23 05:43:29;;;;;;;11.47;10.20;;;12.40;69.20;;;;;;5099684;28;20551;-45
2022/04/23 05:45:57;;;;;;;11.53;10.33;;;12.40;69.00;;;;;;5096891;28;20479;-45
2022/04/23 05:48:24;;;;;;;10.97;9.87;;;12.40;69.10;;;;;;5099036;28;20541;-45
2022/04/23 05:50:51;;;;;;;10.50;9.43;;;12.40;69.30;;;;;;5102952;28;20511;-45
2022/04/23 05:53:18;;;;;;;11.47;10.27;;;12.40;69.20;;;;;;5073413;28;20455;-45
2022/04/23 05:55:44;;;;;;;9.93;9.03;;;12.40;69.00;;;;;;5097426;28;20456;-45
2022/04/23 05:58:11;;;;;;;10.17;9.10;;;12.40;68.90;;;;;;5096409;28;20461;-45
2022/04/23 06:00:38;;;;;;;12.07;9.40;;;12.50;68.70;;;;;;5082794;28;20457;-45
2022/04/23 06:03:05;;;;;;;9.47;8.47;;;12.50;68.90;;;;;;5099637;27;20883;-44
2022/04/23 06:05:32;;;;;;;11.87;9.53;;;12.50;68.80;;;;;;5098500;28;20472;-44
2022/04/23 06:07:58;;;;;;;10.40;9.30;;;12.60;68.70;;;;;;5095488;27;20459;-44
2022/04/23 06:10:25;;;;;;;10.27;8.40;;;12.60;68.60;;;;;;5101601;28;21037;-44
2022/04/23 06:12:52;;;;;;;9.30;7.63;;;12.60;68.80;;;;;;5097119;28;20456;-44
2022/04/23 06:15:19;;;;;;;10.17;9.03;;;12.60;68.40;;;;;;5099989;27;20461;-44
2022/04/23 06:17:46;;;;;;;9.37;7.80;;;12.70;68.40;;;;;;5096432;27;20853;-43
2022/04/23 06:20:13;;;;;;;9.50;8.50;;;12.80;68.10;;;;;;5102512;27;20466;-43
2022/04/23 06:22:40;;;;;;;9.03;8.13;;;12.80;67.70;;;;;;5089539;28;20815;-44
2022/04/23 06:25:07;;;;;;;10.30;7.90;;;12.80;67.70;;;;;;5102457;28;20459;-44
2022/04/23 06:27:34;;;;;;;8.80;7.90;;;12.90;67.60;;;;;;5096601;27;20459;-44
2022/04/23 06:30:01;;;;;;;9.00;8.00;;;12.90;67.40;;;;;;5098689;28;20495;-44
2022/04/23 06:32:27;;;;;;;8.57;7.73;;;12.90;67.30;;;;;;5084479;28;20844;-44
2022/04/23 06:34:54;;;;;;;8.93;8.03;;;13.00;67.30;;;;;;5082070;28;20478;-44
2022/04/23 06:37:21;;;;;;;8.40;7.60;;;13.10;67.10;;;;;;5099786;28;20466;-44
2022/04/23 06:39:49;;;;;;;8.63;7.83;;;13.20;67.00;;;;;;5099826;28;20455;-44
2022/04/23 06:42:16;;;;;;;8.30;7.50;;;13.20;66.40;;;;;;5100086;28;20840;-44
2022/04/23 06:44:43;;;;;;;10.90;9.37;;;13.30;66.40;;;;;;5098007;28;20821;-44
2022/04/23 06:47:09;;;;;;;9.00;7.80;;;13.30;65.80;;;;;;5100990;27;21147;-44
2022/04/23 06:49:36;;;;;;;8.63;7.73;;;13.40;65.90;;;;;;5096367;27;20487;-45
2022/04/23 06:52:03;;;;;;;8.30;7.40;;;13.40;65.80;;;;;;5094969;28;20829;-44
2022/04/23 06:54:30;;;;;;;10.37;7.53;;;13.40;65.50;;;;;;5096629;28;20466;-44
2022/04/23 06:56:57;;;;;;;9.07;7.40;;;13.40;65.50;;;;;;5101239;28;20459;-44
2022/04/23 06:59:24;;;;;;;12.23;9.47;;;13.50;65.60;;;;;;5098015;28;20786;-44
2022/04/23 07:01:50;;;;;;;7.43;6.70;;;13.60;65.80;;;;;;5101767;28;20834;-44
2022/04/23 07:04:17;;;;;;;8.30;7.50;;;13.70;64.70;;;;;;5101743;28;20858;-44
2022/04/23 07:06:44;;;;;;;8.10;7.00;;;13.90;64.40;;;;;;5096743;28;21236;-44
2022/04/23 07:09:11;;;;;;;8.47;7.03;;;14.00;64.30;;;;;;5099619;27;20461;-44
2022/04/23 07:11:38;;;;;;;7.30;6.60;;;14.00;63.60;;;;;;5097923;28;20472;-44
2022/04/23 07:14:06;;;;;;;9.47;7.63;;;14.10;63.80;;;;;;5094732;28;20470;-44
2022/04/23 07:16:33;;;;;;;9.03;7.63;;;14.10;63.20;;;;;;5082357;28;20462;-44
2022/04/23 07:19:00;;;;;;;9.07;7.70;;;14.20;63.50;;;;;;5099610;27;20451;-44
2022/04/23 07:21:27;;;;;;;8.43;6.67;;;14.30;63.20;;;;;;5100058;28;20473;-45
2022/04/23 07:24:03;;;;;;;7.73;6.20;;;14.40;63.70;;;;;;5097963;27;20447;-44
2022/04/23 07:26:31;;;;;;;7.67;6.13;;;14.50;63.00;;;;;;5082044;28;20502;-45
2022/04/23 07:28:58;;;;;;;5.73;5.13;;;14.60;62.40;;;;;;5094369;28;20887;-44
2022/04/23 07:31:25;;;;;;;7.10;6.07;;;14.70;62.00;;;;;;5099568;28;20491;-45
2022/04/23 07:39:23;;;;;;;5.40;5.00;;;14.70;61.70;;;;;;5094422;28;20461;-45
2022/04/23 07:41:50;;;;;;;7.30;5.00;;;14.90;61.60;;;;;;5095166;28;20472;-45
2022/04/23 07:44:16;;;;;;;5.10;4.60;;;15.00;60.90;;;;;;5097220;28;20834;-45
2022/04/23 07:46:43;;;;;;;5.87;5.20;;;15.00;60.50;;;;;;5101741;28;20460;-45
2022/04/23 07:49:10;;;;;;;6.03;5.10;;;15.10;60.50;;;;;;5093372;28;20460;-45
2022/04/23 07:51:37;;;;;;;4.97;4.57;;;15.10;60.30;;;;;;5098834;28;20463;-45
2022/04/23 07:54:03;;;;;;;6.67;4.70;;;15.00;60.60;;;;;;5081021;28;20458;-45
2022/04/23 07:56:30;;;;;;;5.53;4.93;;;15.00;60.80;;;;;;5098982;28;20881;-44
2022/04/23 07:58:57;;;;;;;5.80;5.30;;;15.00;60.80;;;;;;5086314;28;20773;-45
2022/04/23 08:01:24;;;;;;;6.13;5.63;;;15.00;60.90;;;;;;5096348;28;20460;-45
2022/04/23 08:03:50;;;;;;;6.10;5.50;;;15.00;60.80;;;;;;5096708;28;21148;-44
2022/04/23 08:06:17;;;;;;;6.03;5.23;;;15.00;60.60;;;;;;5096665;28;20467;-44
2022/04/23 08:08:44;;;;;;;5.97;5.33;;;15.10;60.70;;;;;;5095673;28;20467;-44
2022/04/23 08:11:11;;;;;;;6.40;5.40;;;15.10;60.70;;;;;;5099166;28;21012;-44
2022/04/23 08:13:37;;;;;;;7.47;5.07;;;15.10;60.80;;;;;;5096645;28;20452;-45
2022/04/23 08:16:05;;;;;;;5.50;5.00;;;15.30;61.50;;;;;;5097957;28;20467;-45
2022/04/23 08:18:32;;;;;;;6.20;5.63;;;15.50;62.00;;;;;;5078789;28;20999;-45
2022/04/23 08:20:58;;;;;;;5.53;4.60;;;15.50;59.90;;;;;;5096944;28;20460;-45
2022/04/23 08:23:25;;;;;;;5.00;4.60;;;15.70;59.50;;;;;;5099461;28;21039;-45
2022/04/23 08:25:55;;;;;;;5.40;4.80;;;16.00;58.50;;;;;;5098285;28;20451;-45
2022/04/23 08:31:08;;;;;;;6.03;4.73;;;16.50;57.10;;;;;;5104773;27;20494;-45
2022/04/23 08:36:20;;;;;;;4.93;4.40;;;16.90;56.70;;;;;;5098631;28;21221;-45
2022/04/23 08:38:46;;;;;;;4.47;4.07;;;17.20;54.90;;;;;;5096423;28;20458;-45
2022/04/23 08:41:13;;;;;;;4.37;3.93;;;17.50;54.70;;;;;;5104183;27;20839;-45
2022/04/23 08:43:43;;;;;;;19.80;6.40;;;17.90;54.20;;;;;;5097545;28;20494;-46
2022/04/23 08:46:09;;;;;;;3.80;3.40;;;18.20;53.00;;;;;;5098225;28;20491;-44
2022/04/23 08:48:46;;;;;;;3.80;3.50;;;18.40;52.50;;;;;;5099874;28;20827;-45
2022/04/23 08:51:17;;;;;;;3.53;3.23;;;18.70;52.10;;;;;;5095618;28;21061;-45
2022/04/23 08:53:46;;;;;;;4.30;3.77;;;18.90;51.50;;;;;;5101004;28;20503;-44
2022/04/23 08:56:13;;;;;;;5.17;3.43;;;19.10;50.40;;;;;;5099007;28;20464;-44
2022/04/23 08:58:40;;;;;;;3.83;3.40;;;19.40;49.70;;;;;;5099535;27;20828;-44
2022/04/23 09:01:07;;;;;;;4.97;4.47;;;19.40;49.40;;;;;;5101459;27;20463;-45
2022/04/23 09:03:33;;;;;;;4.70;4.30;;;19.40;49.80;;;;;;5105076;27;20457;-45
2022/04/23 09:06:00;;;;;;;4.23;3.83;;;19.40;49.30;;;;;;5096078;28;20452;-45
2022/04/23 09:08:29;;;;;;;8.27;3.70;;;19.60;49.50;;;;;;5081500;27;20463;-44
2022/04/23 09:10:56;;;;;;;3.23;2.93;;;19.90;49.00;;;;;;5099368;28;20545;-45
2022/04/23 09:13:28;;;;;;;3.20;2.90;;;20.20;48.30;;;;;;5099804;28;20493;-45
2022/04/23 09:24:49;;;;;;;3.63;3.33;;;20.50;47.50;;;;;;5083337;28;20864;-44
2022/04/23 09:27:16;;;;;;;3.80;3.40;;;20.70;46.80;;;;;;5097890;28;20476;-44
2022/04/23 09:30:06;;;;;;;3.83;3.10;;;20.80;46.40;;;;;;5100627;28;20487;-44
2022/04/23 09:32:34;;;;;;;3.10;2.80;;;21.00;46.10;;;;;;5092518;27;20502;-45
2022/04/23 09:35:08;;;;;;;3.80;3.50;;;21.40;45.80;;;;;;5094720;28;20472;-45
2022/04/23 09:40:23;;;;;;;5.50;5.00;;;22.10;44.80;;;;;;5096113;28;20516;-45
2022/04/23 09:43:04;;;;;;;5.10;4.57;;;22.30;44.60;;;;;;5100467;27;20843;-45
2022/04/23 09:45:31;;;;;;;4.80;4.40;;;22.30;44.00;;;;;;5102055;28;20459;-45
2022/04/23 09:48:04;;;;;;;4.87;4.23;;;22.20;44.60;;;;;;5086133;28;20470;-45
2022/04/23 09:50:38;;;;;;;4.60;4.10;;;22.00;44.70;;;;;;5085796;28;20483;-44
2022/04/23 09:53:12;;;;;;;4.60;4.20;;;21.70;45.40;;;;;;5097342;28;21166;-45
2022/04/23 09:55:39;;;;;;;4.93;4.43;;;21.40;45.40;;;;;;5094962;28;20455;-44
2022/04/23 09:58:08;;;;;;;5.20;4.70;;;21.00;46.00;;;;;;5093141;28;20475;-44
2022/04/23 10:00:40;;;;;;;6.10;4.20;;;20.80;46.30;;;;;;5099452;28;21030;-44
2022/04/23 10:03:09;;;;;;;4.70;4.03;;;20.70;47.30;;;;;;5103163;27;20556;-44
2022/04/23 10:05:38;;;;;;;6.07;4.20;;;20.70;48.20;;;;;;5097114;28;20470;-44
2022/04/23 10:08:13;;;;;;;4.70;4.30;;;20.60;47.10;;;;;;5097095;27;20468;-45
2022/04/23 10:10:49;;;;;;;4.87;4.37;;;20.50;47.60;;;;;;5094627;27;20947;-44
2022/04/23 10:13:18;;;;;;;4.23;3.77;;;20.50;48.10;;;;;;5092961;28;21162;-45
2022/04/23 10:15:46;;;;;;;4.93;4.50;;;20.50;47.40;;;;;;5094677;28;20459;-45
2022/04/23 10:18:14;;;;;;;4.70;4.30;;;20.60;47.10;;;;;;5093741;27;20452;-45
2022/04/23 10:20:52;;;;;;;5.23;4.60;;;20.60;47.00;;;;;;5096799;28;20543;-44
2022/04/23 10:23:27;;;;;;;6.80;5.13;;;20.50;47.10;;;;;;5096571;27;20466;-44
2022/04/23 10:26:25;;;;;;;5.60;4.20;;;20.40;47.40;;;;;;5096646;28;20588;-44
2022/04/23 10:28:52;;;;;;;6.00;5.40;;;20.30;47.40;;;;;;5096869;28;20845;-45
2022/04/23 10:31:19;;;;;;;5.03;4.53;;;20.60;48.00;;;;;;5095623;28;20494;-45
2022/04/23 10:33:54;;;;;;;14.70;5.57;;;20.80;46.80;;;;;;5081548;28;20465;-44
2022/04/23 10:36:22;;;;;;;7.70;3.90;;;21.00;45.80;;;;;;5094941;28;20448;-45
2022/04/23 10:38:53;;;;;;;6.70;3.87;;;21.10;45.70;;;;;;5099828;27;20964;-45
2022/04/23 10:41:22;;;;;;;5.10;4.20;;;21.30;45.80;;;;;;5101075;28;20547;-45
2022/04/23 10:44:03;;;;;;;5.43;4.70;;;21.50;44.80;;;;;;5096113;27;21002;-44
2022/04/23 10:46:42;;;;;;;4.53;4.13;;;21.40;45.10;;;;;;5087272;28;20451;-44
2022/04/23 10:49:19;;;;;;;4.40;4.03;;;21.40;45.00;;;;;;5095529;28;20451;-44
2022/04/23 10:51:56;;;;;;;4.77;4.27;;;21.40;45.00;;;;;;5097960;28;20492;-45
2022/04/23 10:54:41;;;;;;;4.23;3.83;;;21.40;45.50;;;;;;5095107;28;22162;-44
2022/04/23 10:57:09;;;;;;;5.40;4.10;;;21.50;45.00;;;;;;5094200;28;20527;-44
2022/04/23 10:59:40;;;;;;;5.53;4.10;;;21.50;45.00;;;;;;5099342;27;20458;-45
2022/04/23 11:02:19;;;;;;;5.50;5.00;;;21.60;44.70;;;;;;5095071;28;20869;-44
2022/04/23 11:13:40;;;;;;;4.77;4.40;;;21.50;44.60;;;;;;5065138;28;20875;-45
2022/04/23 11:16:18;;;;;;;5.33;4.87;;;21.50;44.70;;;;;;5083902;28;20830;-45
2022/04/23 11:18:49;;;;;;;7.30;4.43;;;21.40;44.60;;;;;;5096827;28;20939;-45
2022/04/23 11:21:26;;;;;;;5.27;4.77;;;21.30;44.80;;;;;;5096501;28;20493;-44
2022/04/23 11:23:55;;;;;;;6.60;4.73;;;21.30;44.90;;;;;;5096239;28;21109;-45
2022/04/23 11:26:51;;;;;;;5.03;4.53;;;21.20;44.90;;;;;;5096018;28;20539;-45
2022/04/23 11:29:18;;;;;;;5.27;4.77;;;21.20;45.40;;;;;;5096518;27;20471;-45
2022/04/23 11:31:58;;;;;;;5.57;5.07;;;21.10;45.60;;;;;;5095802;28;20495;-45
2022/04/23 11:34:27;;;;;;;5.27;4.60;;;21.00;45.80;;;;;;5077591;28;20460;-44
2022/04/23 11:36:55;;;;;;;7.00;5.07;;;20.90;46.50;;;;;;5096367;28;20539;-44
2022/04/23 11:39:28;;;;;;;5.83;5.10;;;20.70;46.10;;;;;;5095647;28;20484;-44
2022/04/23 11:41:55;;;;;;;8.23;6.07;;;20.40;46.40;;;;;;5100819;28;20469;-45
2022/04/23 11:47:11;;;;;;;8.63;7.77;;;19.80;47.50;;;;;;5092220;28;20980;-43
2022/04/23 11:49:38;;;;;;;7.20;6.20;;;19.50;48.30;;;;;;5095078;28;20980;-44
2022/04/23 11:52:12;;;;;;;7.23;6.47;;;19.30;48.80;;;;;;5092357;28;20584;-44
2022/04/23 11:54:44;;;;;;;8.03;7.23;;;19.10;49.10;;;;;;5095678;28;20452;-44
2022/04/23 11:57:16;;;;;;;7.40;6.70;;;19.00;49.50;;;;;;5095459;28;20976;-44
2022/04/23 11:59:47;;;;;;;7.80;7.00;;;18.80;49.80;;;;;;5100087;27;20481;-44
2022/04/23 12:02:25;;;;;;;8.77;7.87;;;18.70;50.10;;;;;;5103072;28;20462;-44
2022/04/23 12:04:58;;;;;;;8.87;7.97;;;18.60;50.40;;;;;;5100389;28;20487;-44
2022/04/23 12:07:26;;;;;;;8.37;7.30;;;18.60;50.50;;;;;;5097974;28;20470;-44
2022/04/23 12:10:00;;;;;;;9.30;7.60;;;18.40;50.50;;;;;;5091052;28;20466;-45
2022/04/23 12:12:29;;;;;;;7.70;6.90;;;18.20;50.70;;;;;;5092805;27;20620;-45
2022/04/23 12:14:57;;;;;;;7.97;7.20;;;18.20;50.80;;;;;;5090415;27;20468;-45
2022/04/23 12:17:31;;;;;;;9.93;7.40;;;18.10;51.00;;;;;;5084653;28;20460;-45
2022/04/23 12:20:00;;;;;;;8.60;7.70;;;18.10;51.30;;;;;;5099067;28;20461;-45
2022/04/23 12:22:31;;;;;;;8.10;7.27;;;18.10;51.40;;;;;;5097270;27;21020;-44
2022/04/23 12:25:18;;;;;;;8.13;7.23;;;18.00;51.50;;;;;;5097866;28;20460;-44
2022/04/23 12:27:54;;;;;;;8.00;6.90;;;18.00;51.50;;;;;;5085989;28;20461;-44
2022/04/23 12:42:10;;;;;;;8.83;7.10;;;18.10;51.60;;;;;;5102004;27;20517;-45
2022/04/23 12:44:42;;;;;;;8.00;7.13;;;18.00;51.70;;;;;;5083559;28;21072;-44
2022/04/23 12:47:18;;;;;;;8.77;7.97;;;18.10;51.60;;;;;;5095736;27;20466;-45
2022/04/23 12:49:56;;;;;;;9.40;7.50;;;18.10;51.50;;;;;;5098893;28;20908;-45
2022/04/23 12:52:27;;;;;;;13.03;11.70;;;18.10;51.20;;;;;;5095618;28;20493;-44
2022/04/23 12:55:25;;;;;;;29.17;26.23;;;18.00;51.50;;;;;;5100762;28;20468;-44
2022/04/23 12:57:59;;;;;;;14.43;10.03;;;18.00;51.70;;;;;;5095899;28;20465;-44
2022/04/23 13:00:30;;;;;;;10.40;8.60;;;18.00;51.60;;;;;;5099608;28;20519;-44
2022/04/23 13:03:01;;;;;;;9.27;8.40;;;17.90;52.00;;;;;;5086789;28;20469;-44
2022/04/23 13:05:28;;;;;;;12.50;9.60;;;17.90;52.10;;;;;;5069799;28;20494;-44
2022/04/23 13:10:40;;;;;;;11.07;9.03;;;17.90;52.40;;;;;;5096194;28;20827;-45
2022/04/23 13:13:07;;;;;;;11.80;9.00;;;18.00;52.00;;;;;;5095144;28;20477;-45
2022/04/23 13:15:35;;;;;;;10.43;9.33;;;18.10;51.70;;;;;;5100532;27;20564;-45
2022/04/23 13:18:03;;;;;;;12.07;9.00;;;18.10;51.70;;;;;;5096262;28;20917;-45
2022/04/23 13:20:30;;;;;;;10.40;9.17;;;18.10;51.80;;;;;;5101767;28;20473;-44
2022/04/23 13:22:59;;;;;;;14.43;10.53;;;18.20;51.60;;;;;;5102313;27;20672;-44
2022/04/23 13:25:26;;;;;;;14.57;11.67;;;18.30;51.50;;;;;;5094841;27;20512;-45
2022/04/23 13:27:53;;;;;;;12.53;10.67;;;18.20;51.80;;;;;;5099238;27;20458;-44
2022/04/23 13:30:20;;;;;;;12.80;11.47;;;18.20;52.40;;;;;;5097809;27;20513;-44
2022/04/23 13:32:47;;;;;;;11.90;10.60;;;18.20;52.50;;;;;;5096984;27;20481;-44